Santa Paula, CA

10:50 AM PDT on October 21, 2014 (GMT -0700)
Santa Paula Airport | Change Station
CLOSE
Current Station
Personal Weather Station
Location: Santa Paula, CA
Elevation: 245 ft
Nearby Weather Stations

Elev 245 ft 34.35 °N, 119.06 °W | Updated 1 minute ago

Clear
Clear
76.1 °F
Feels Like 78 °F
N
2.0
Wind Variable Wind from ESE
Gusts 6.0 mph

Today
High -- | Low -- °F
--% Chance of Precip.
Yesterday
High -- | Low -- °F
Precip. -- in
7:06 AM 6:14 PM
Waning Crescent, 5% visible
Pressure 29.95 in
Visibility 10.0 miles
Clouds Clear
Heat Index 78 °F
Dew Point 53 °F
Humidity 44%
Rainfall 0.00 in
Snow Depth Not available.
UV 3 out of 12
Pollen 4.20 out of 12
Ozone Good
PM2.5 Good
Flu Activity Sporadic
METAR KCMA 211655Z 00000KT 10SM CLR 21/14 A2992 RMK AO2 SLP140 T02060139

More Conditions Fewer Conditions

Pressure 29.95 in
Visibility 10.0 miles
Clouds Clear
Heat Index 78 °F
Dew Point 53 °F
Humidity 44%
Rainfall 0.00 in
Snow Depth Not available.
UV 3 out of 12
Pollen 4.20 out of 12
Ozone Good
PM2.5 Good
Flu Activity Sporadic
METAR KCMA 211655Z 00000KT 10SM CLR 21/14 A2992 RMK AO2 SLP140 T02060139

More Conditions Fewer Conditions

10-Day Weather Forecast

Almanac

Astronomy

Oct. 21, 2014 Rise Set
Actual Time 7:06 AM PDT 6:14 PM PDT
Civil Twilight 6:41 AM PDT 6:40 PM PDT
Nautical Twilight 6:11 AM PDT 7:09 PM PDT
Astronomical Twilight 5:42 AM PDT 7:38 PM PDT
Moon 5:01 AM PDT 5:06 PM PDT
Length of Visible Light 11h 58m
Length of Day
11h 07m
Tomorrow will be 2m 0s shorter.
Waning Crescent, 5% of the Moon is Illuminated
Today
Waning Crescent
Oct 23
New
Oct 30
First Quarter
Nov 6
Full
Nov 14
Last Quarter

Today's Extremes

State Highs State Lows

Community

WunderPhotos

Upload Photos

1,763,733 photos uploaded!

Nearby

Air Quality

  Air Quality AQ Index Pollutant
Yesterday Good
PM2.5
Yesterday Good
OZONE
Current Good
PM2.5
Current Good
OZONE
Tuesday Good
OZONE
Tuesday Good
PM10
Wednesday Good
OZONE
Wednesday Good
PM10
Thursday Good
OZONE
Thursday Good
PM10
Friday Good
OZONE
Friday Good
PM10
Saturday Good
OZONE
Saturday Good
PM10

Snow Depth

Station Depth Elevation
Virginia Lakes Ridge 0 in 9200 ft
Leavitt Lake 0 in 9400 ft
Sonora Pass 0 in 8800 ft
Leavitt Meadows 0 in 7200 ft
Summit Meadow 2 in 9122 ft

Earthquake Activity

City Distance Mag. Time & Date
Lone Pine, California 136 miles 2.6 5:26 AM PDT
2014-10-19
Minimum magnitude displayed is 2.5.

Coastal Water Temperatures

Place Temperature
Santa Monica Pier 69.1 °F
Los Angeles, CA 69.1 °F
Port San Luis, CA 66.0 °F

Nearby Weather Stations